sensor_id;sensor_type;location;lat;lon;timestamp;pressure;altitude;pressure_sealevel;temperature;humidity
56174;BME280;42058;52.308;20.924;2024-03-25T00:00:55;99176.48;;;3.62;100.00
56174;BME280;42058;52.308;20.924;2024-03-25T00:03:37;99177.73;;;3.60;100.00
56174;BME280;42058;52.308;20.924;2024-03-25T00:06:05;99179.32;;;3.58;100.00
56174;BME280;42058;52.308;20.924;2024-03-25T00:08:33;99183.86;;;3.57;100.00
56174;BME280;42058;52.308;20.924;2024-03-25T00:11:01;99183.05;;;3.54;100.00
56174;BME280;42058;52.308;20.924;2024-03-25T00:13:28;99187.73;;;3.53;100.00
56174;BME280;42058;52.308;20.924;2024-03-25T00:15:56;99184.83;;;3.51;100.00
56174;BME280;42058;52.308;20.924;2024-03-25T00:18:23;99183.29;;;3.50;100.00
56174;BME280;42058;52.308;20.924;2024-03-25T00:20:50;99184.87;;;3.48;100.00
56174;BME280;42058;52.308;20.924;2024-03-25T00:23:18;99184.20;;;3.48;100.00
56174;BME280;42058;52.308;20.924;2024-03-25T00:25:46;99184.73;;;3.46;100.00
56174;BME280;42058;52.308;20.924;2024-03-25T00:28:13;99182.66;;;3.47;100.00
56174;BME280;42058;52.308;20.924;2024-03-25T00:30:41;99181.94;;;3.48;100.00
56174;BME280;42058;52.308;20.924;2024-03-25T00:33:08;99181.19;;;3.51;100.00
56174;BME280;42058;52.308;20.924;2024-03-25T00:35:35;99174.73;;;3.52;100.00
56174;BME280;42058;52.308;20.924;2024-03-25T00:38:03;99174.89;;;3.54;100.00
56174;BME280;42058;52.308;20.924;2024-03-25T00:40:31;99171.02;;;3.56;100.00
56174;BME280;42058;52.308;20.924;2024-03-25T00:42:58;99168.22;;;3.58;100.00
56174;BME280;42058;52.308;20.924;2024-03-25T00:45:26;99165.42;;;3.60;100.00
56174;BME280;42058;52.308;20.924;2024-03-25T00:47:57;99161.39;;;3.62;100.00
56174;BME280;42058;52.308;20.924;2024-03-25T00:50:26;99161.68;;;3.64;100.00
56174;BME280;42058;52.308;20.924;2024-03-25T00:52:54;99160.27;;;3.66;100.00
56174;BME280;42058;52.308;20.924;2024-03-25T00:55:21;99157.30;;;3.68;100.00
56174;BME280;42058;52.308;20.924;2024-03-25T00:57:48;99157.09;;;3.70;100.00
56174;BME280;42058;52.308;20.924;2024-03-25T01:00:17;99154.11;;;3.71;100.00
56174;BME280;42058;52.308;20.924;2024-03-25T01:02:44;99156.70;;;3.72;100.00
56174;BME280;42058;52.308;20.924;2024-03-25T01:05:12;99154.43;;;3.73;100.00
56174;BME280;42058;52.308;20.924;2024-03-25T01:07:39;99150.06;;;3.74;100.00
56174;BME280;42058;52.308;20.924;2024-03-25T01:10:07;99150.05;;;3.75;100.00
56174;BME280;42058;52.308;20.924;2024-03-25T01:12:34;99150.40;;;3.75;100.00
56174;BME280;42058;52.308;20.924;2024-03-25T01:15:02;99147.48;;;3.74;100.00
56174;BME280;42058;52.308;20.924;2024-03-25T01:17:31;99145.77;;;3.72;100.00
56174;BME280;42058;52.308;20.924;2024-03-25T01:19:58;99144.38;;;3.73;100.00
56174;BME280;42058;52.308;20.924;2024-03-25T01:22:25;99148.34;;;3.73;100.00
56174;BME280;42058;52.308;20.924;2024-03-25T01:24:53;99147.46;;;3.74;100.00
56174;BME280;42058;52.308;20.924;2024-03-25T01:27:20;99146.60;;;3.74;100.00
56174;BME280;42058;52.308;20.924;2024-03-25T01:29:47;99141.55;;;3.75;100.00
56174;BME280;42058;52.308;20.924;2024-03-25T01:32:15;99143.79;;;3.75;100.00
56174;BME280;42058;52.308;20.924;2024-03-25T01:34:42;99141.70;;;3.76;100.00
56174;BME280;42058;52.308;20.924;2024-03-25T01:37:09;99145.17;;;3.75;100.00
56174;BME280;42058;52.308;20.924;2024-03-25T01:39:37;99143.09;;;3.76;100.00
56174;BME280;42058;52.308;20.924;2024-03-25T01:42:06;99142.04;;;3.77;100.00
56174;BME280;42058;52.308;20.924;2024-03-25T01:44:33;99142.73;;;3.77;100.00
56174;BME280;42058;52.308;20.924;2024-03-25T01:47:01;99143.58;;;3.78;100.00
56174;BME280;42058;52.308;20.924;2024-03-25T01:49:29;99142.20;;;3.78;100.00
56174;BME280;42058;52.308;20.924;2024-03-25T01:51:57;99144.63;;;3.77;100.00
56174;BME280;42058;52.308;20.924;2024-03-25T01:54:25;99140.48;;;3.77;100.00
56174;BME280;42058;52.308;20.924;2024-03-25T01:56:54;99141.69;;;3.77;100.00
56174;BME280;42058;52.308;20.924;2024-03-25T01:59:23;99141.17;;;3.76;100.00
56174;BME280;42058;52.308;20.924;2024-03-25T02:01:50;99143.64;;;3.74;100.00
56174;BME280;42058;52.308;20.924;2024-03-25T02:04:18;99139.85;;;3.74;100.00
56174;BME280;42058;52.308;20.924;2024-03-25T02:06:45;99137.98;;;3.72;100.00
56174;BME280;42058;52.308;20.924;2024-03-25T02:09:13;99140.76;;;3.71;100.00
56174;BME280;42058;52.308;20.924;2024-03-25T02:11:40;99137.66;;;3.70;100.00
56174;BME280;42058;52.308;20.924;2024-03-25T02:14:09;99142.35;;;3.69;100.00
56174;BME280;42058;52.308;20.924;2024-03-25T02:16:36;99135.30;;;3.66;100.00
56174;BME280;42058;52.308;20.924;2024-03-25T02:19:04;99131.55;;;3.63;100.00
56174;BME280;42058;52.308;20.924;2024-03-25T02:21:31;99129.85;;;3.60;100.00
56174;BME280;42058;52.308;20.924;2024-03-25T02:23:59;99131.97;;;3.59;100.00
56174;BME280;42058;52.308;20.924;2024-03-25T02:26:28;99138.23;;;3.57;100.00
56174;BME280;42058;52.308;20.924;2024-03-25T02:28:55;99137.23;;;3.56;100.00
56174;BME280;42058;52.308;20.924;2024-03-25T02:31:23;99140.05;;;3.54;100.00
56174;BME280;42058;52.308;20.924;2024-03-25T02:33:50;99144.21;;;3.53;100.00
56174;BME280;42058;52.308;20.924;2024-03-25T02:36:18;99142.34;;;3.52;100.00
56174;BME280;42058;52.308;20.924;2024-03-25T02:38:45;99147.02;;;3.51;100.00
56174;BME280;42058;52.308;20.924;2024-03-25T02:41:12;99144.44;;;3.50;100.00
56174;BME280;42058;52.308;20.924;2024-03-25T02:43:40;99145.67;;;3.49;100.00
56174;BME280;42058;52.308;20.924;2024-03-25T02:46:07;99141.03;;;3.47;100.00
56174;BME280;42058;52.308;20.924;2024-03-25T02:48:35;99141.91;;;3.46;100.00
56174;BME280;42058;52.308;20.924;2024-03-25T02:51:02;99143.86;;;3.43;100.00
56174;BME280;42058;52.308;20.924;2024-03-25T02:53:29;99145.48;;;3.41;100.00
56174;BME280;42058;52.308;20.924;2024-03-25T02:55:57;99145.86;;;3.39;100.00
56174;BME280;42058;52.308;20.924;2024-03-25T02:58:24;99143.64;;;3.37;100.00
56174;BME280;42058;52.308;20.924;2024-03-25T03:00:52;99149.02;;;3.36;100.00
56174;BME280;42058;52.308;20.924;2024-03-25T03:03:19;99148.37;;;3.35;100.00
56174;BME280;42058;52.308;20.924;2024-03-25T03:05:46;99152.55;;;3.34;100.00
56174;BME280;42058;52.308;20.924;2024-03-25T03:08:14;99153.27;;;3.32;100.00
56174;BME280;42058;52.308;20.924;2024-03-25T03:10:41;99154.48;;;3.32;100.00
56174;BME280;42058;52.308;20.924;2024-03-25T03:13:08;99155.86;;;3.33;100.00
56174;BME280;42058;52.308;20.924;2024-03-25T03:15:37;99156.89;;;3.33;100.00
56174;BME280;42058;52.308;20.924;2024-03-25T03:18:04;99159.33;;;3.32;100.00
56174;BME280;42058;52.308;20.924;2024-03-25T03:20:32;99158.80;;;3.32;100.00
56174;BME280;42058;52.308;20.924;2024-03-25T03:22:59;99162.30;;;3.31;100.00
56174;BME280;42058;52.308;20.924;2024-03-25T03:25:27;99162.45;;;3.32;100.00
56174;BME280;42058;52.308;20.924;2024-03-25T03:27:56;99164.52;;;3.32;100.00
56174;BME280;42058;52.308;20.924;2024-03-25T03:30:24;99167.30;;;3.33;100.00
56174;BME280;42058;52.308;20.924;2024-03-25T03:32:51;99170.93;;;3.33;100.00
56174;BME280;42058;52.308;20.924;2024-03-25T03:35:18;99168.33;;;3.32;100.00
56174;BME280;42058;52.308;20.924;2024-03-25T03:37:46;99170.08;;;3.32;100.00
56174;BME280;42058;52.308;20.924;2024-03-25T03:40:14;99170.94;;;3.33;100.00
56174;BME280;42058;52.308;20.924;2024-03-25T03:42:41;99173.70;;;3.32;100.00
56174;BME280;42058;52.308;20.924;2024-03-25T03:45:08;99176.84;;;3.32;100.00
56174;BME280;42058;52.308;20.924;2024-03-25T03:47:36;99180.85;;;3.31;100.00
56174;BME280;42058;52.308;20.924;2024-03-25T03:50:03;99182.06;;;3.31;100.00
56174;BME280;42058;52.308;20.924;2024-03-25T03:52:31;99180.17;;;3.30;100.00
56174;BME280;42058;52.308;20.924;2024-03-25T03:54:58;99186.09;;;3.29;100.00
56174;BME280;42058;52.308;20.924;2024-03-25T03:57:26;99185.39;;;3.28;100.00
56174;BME280;42058;52.308;20.924;2024-03-25T03:59:53;99189.91;;;3.28;100.00
56174;BME280;42058;52.308;20.924;2024-03-25T04:02:20;99193.02;;;3.27;100.00
56174;BME280;42058;52.308;20.924;2024-03-25T04:04:48;99195.64;;;3.27;100.00
56174;BME280;42058;52.308;20.924;2024-03-25T04:07:15;99195.30;;;3.27;100.00
56174;BME280;42058;52.308;20.924;2024-03-25T04:09:43;99194.25;;;3.26;100.00
56174;BME280;42058;52.308;20.924;2024-03-25T04:12:10;99189.23;;;3.26;100.00
56174;BME280;42058;52.308;20.924;2024-03-25T04:14:38;99188.71;;;3.26;100.00
56174;BME280;42058;52.308;20.924;2024-03-25T04:17:05;99193.05;;;3.26;100.00
56174;BME280;42058;52.308;20.924;2024-03-25T04:19:33;99190.11;;;3.25;100.00
56174;BME280;42058;52.308;20.924;2024-03-25T04:22:01;99188.58;;;3.25;100.00
56174;BME280;42058;52.308;20.924;2024-03-25T04:24:29;99189.27;;;3.25;100.00
56174;BME280;42058;52.308;20.924;2024-03-25T04:26:56;99191.02;;;3.24;100.00
56174;BME280;42058;52.308;20.924;2024-03-25T04:29:23;99193.27;;;3.24;100.00
56174;BME280;42058;52.308;20.924;2024-03-25T04:31:50;99187.59;;;3.21;100.00
56174;BME280;42058;52.308;20.924;2024-03-25T04:34:18;99191.70;;;3.24;100.00
56174;BME280;42058;52.308;20.924;2024-03-25T04:36:47;99191.02;;;3.23;100.00
56174;BME280;42058;52.308;20.924;2024-03-25T04:39:15;99193.95;;;3.24;100.00
56174;BME280;42058;52.308;20.924;2024-03-25T04:41:42;99193.25;;;3.24;100.00
56174;BME280;42058;52.308;20.924;2024-03-25T04:44:10;99193.77;;;3.24;100.00
56174;BME280;42058;52.308;20.924;2024-03-25T04:46:37;99191.86;;;3.24;100.00
56174;BME280;42058;52.308;20.924;2024-03-25T04:49:04;99193.25;;;3.25;100.00
56174;BME280;42058;52.308;20.924;2024-03-25T04:51:32;99195.48;;;3.26;100.00
56174;BME280;42058;52.308;20.924;2024-03-25T04:53:59;99198.77;;;3.26;100.00
56174;BME280;42058;52.308;20.924;2024-03-25T04:56:27;99201.88;;;3.26;100.00
56174;BME280;42058;52.308;20.924;2024-03-25T04:58:54;99201.18;;;3.26;100.00
56174;BME280;42058;52.308;20.924;2024-03-25T05:01:21;99201.19;;;3.27;100.00
56174;BME280;42058;52.308;20.924;2024-03-25T05:03:49;99200.66;;;3.27;100.00
56174;BME280;42058;52.308;20.924;2024-03-25T05:06:16;99204.11;;;3.29;100.00
56174;BME280;42058;52.308;20.924;2024-03-25T05:08:43;99202.86;;;3.30;100.00
56174;BME280;42058;52.308;20.924;2024-03-25T05:11:11;99203.36;;;3.32;100.00
56174;BME280;42058;52.308;20.924;2024-03-25T05:13:38;99206.80;;;3.33;100.00
56174;BME280;42058;52.308;20.924;2024-03-25T05:16:06;99210.06;;;3.35;100.00
56174;BME280;42058;52.308;20.924;2024-03-25T05:18:33;99211.77;;;3.38;100.00
56174;BME280;42058;52.308;20.924;2024-03-25T05:21:00;99208.77;;;3.40;100.00
56174;BME280;42058;52.308;20.924;2024-03-25T05:23:28;99204.74;;;3.42;100.00
56174;BME280;42058;52.308;20.924;2024-03-25T05:25:55;99204.86;;;3.45;100.00
56174;BME280;42058;52.308;20.924;2024-03-25T05:28:22;99203.95;;;3.49;100.00
56174;BME280;42058;52.308;20.924;2024-03-25T05:30:50;99203.53;;;3.52;100.00
56174;BME280;42058;52.308;20.924;2024-03-25T05:33:17;99204.67;;;3.56;100.00
56174;BME280;42058;52.308;20.924;2024-03-25T05:35:44;99208.57;;;3.61;100.00
56174;BME280;42058;52.308;20.924;2024-03-25T05:38:12;99206.06;;;3.65;100.00
56174;BME280;42058;52.308;20.924;2024-03-25T05:40:39;99206.52;;;3.70;100.00
56174;BME280;42058;52.308;20.924;2024-03-25T05:43:06;99208.30;;;3.77;100.00
56174;BME280;42058;52.308;20.924;2024-03-25T05:45:34;99216.01;;;3.82;100.00
56174;BME280;42058;52.308;20.924;2024-03-25T05:48:01;99212.59;;;3.89;100.00
56174;BME280;42058;52.308;20.924;2024-03-25T05:50:29;99211.63;;;3.94;100.00
56174;BME280;42058;52.308;20.924;2024-03-25T05:52:56;99213.10;;;3.98;100.00
56174;BME280;42058;52.308;20.924;2024-03-25T05:55:24;99214.59;;;4.01;100.00
56174;BME280;42058;52.308;20.924;2024-03-25T05:57:51;99217.30;;;4.06;100.00
56174;BME280;42058;52.308;20.924;2024-03-25T06:00:18;99220.36;;;4.09;100.00
56174;BME280;42058;52.308;20.924;2024-03-25T06:02:48;99222.21;;;4.11;100.00
56174;BME280;42058;52.308;20.924;2024-03-25T06:05:15;99227.69;;;4.16;100.00
56174;BME280;42058;52.308;20.924;2024-03-25T06:07:42;99226.38;;;4.20;100.00
56174;BME280;42058;52.308;20.924;2024-03-25T06:10:10;99236.36;;;4.25;100.00
56174;BME280;42058;52.308;20.924;2024-03-25T06:12:37;99238.70;;;4.29;100.00
56174;BME280;42058;52.308;20.924;2024-03-25T06:15:05;99239.16;;;4.33;100.00
56174;BME280;42058;52.308;20.924;2024-03-25T06:17:32;99241.34;;;4.36;100.00
56174;BME280;42058;52.308;20.924;2024-03-25T06:20:00;99239.90;;;4.39;100.00
56174;BME280;42058;52.308;20.924;2024-03-25T06:22:27;99243.48;;;4.41;100.00
56174;BME280;42058;52.308;20.924;2024-03-25T06:24:54;99240.11;;;4.46;100.00
56174;BME280;42058;52.308;20.924;2024-03-25T06:27:22;99239.54;;;4.48;100.00
56174;BME280;42058;52.308;20.924;2024-03-25T06:29:49;99238.79;;;4.50;100.00
56174;BME280;42058;52.308;20.924;2024-03-25T06:32:36;99242.55;;;4.54;100.00
56174;BME280;42058;52.308;20.924;2024-03-25T06:35:22;99243.34;;;4.57;100.00
56174;BME280;42058;52.308;20.924;2024-03-25T06:37:50;99243.98;;;4.60;100.00
56174;BME280;42058;52.308;20.924;2024-03-25T06:40:17;99243.54;;;4.64;100.00
56174;BME280;42058;52.308;20.924;2024-03-25T06:42:44;99244.70;;;4.66;100.00
56174;BME280;42058;52.308;20.924;2024-03-25T06:45:12;99253.41;;;4.73;100.00
56174;BME280;42058;52.308;20.924;2024-03-25T06:47:41;99252.10;;;4.78;100.00
56174;BME280;42058;52.308;20.924;2024-03-25T06:50:08;99253.70;;;4.84;100.00
56174;BME280;42058;52.308;20.924;2024-03-25T06:52:36;99255.50;;;4.90;100.00
56174;BME280;42058;52.308;20.924;2024-03-25T06:55:03;99255.36;;;4.96;100.00
56174;BME280;42058;52.308;20.924;2024-03-25T06:57:31;99257.78;;;5.04;100.00
56174;BME280;42058;52.308;20.924;2024-03-25T06:59:58;99255.31;;;5.13;100.00
56174;BME280;42058;52.308;20.924;2024-03-25T07:02:27;99253.81;;;5.25;100.00
56174;BME280;42058;52.308;20.924;2024-03-25T07:04:55;99250.64;;;5.41;100.00
56174;BME280;42058;52.308;20.924;2024-03-25T07:07:22;99251.19;;;5.62;100.00
56174;BME280;42058;52.308;20.924;2024-03-25T07:09:49;99252.70;;;5.84;100.00
56174;BME280;42058;52.308;20.924;2024-03-25T07:12:17;99250.17;;;6.02;100.00
56174;BME280;42058;52.308;20.924;2024-03-25T07:14:45;99247.58;;;6.21;100.00
56174;BME280;42058;52.308;20.924;2024-03-25T07:17:12;99251.56;;;6.40;100.00
56174;BME280;42058;52.308;20.924;2024-03-25T07:19:40;99249.71;;;6.56;100.00
56174;BME280;42058;52.308;20.924;2024-03-25T07:22:07;99249.33;;;6.69;100.00
56174;BME280;42058;52.308;20.924;2024-03-25T07:24:35;99255.25;;;6.81;100.00
56174;BME280;42058;52.308;20.924;2024-03-25T07:27:02;99256.52;;;6.91;100.00
56174;BME280;42058;52.308;20.924;2024-03-25T07:29:30;99256.16;;;6.97;100.00
56174;BME280;42058;52.308;20.924;2024-03-25T07:31:57;99255.14;;;7.02;100.00
56174;BME280;42058;52.308;20.924;2024-03-25T07:34:24;99254.23;;;7.09;100.00
56174;BME280;42058;52.308;20.924;2024-03-25T07:36:52;99249.86;;;7.15;100.00
56174;BME280;42058;52.308;20.924;2024-03-25T07:39:19;99254.32;;;7.23;100.00
56174;BME280;42058;52.308;20.924;2024-03-25T07:41:46;99252.94;;;7.28;100.00
56174;BME280;42058;52.308;20.924;2024-03-25T07:44:14;99254.06;;;7.31;100.00
56174;BME280;42058;52.308;20.924;2024-03-25T07:46:41;99261.29;;;7.39;100.00
56174;BME280;42058;52.308;20.924;2024-03-25T07:49:09;99258.20;;;7.43;100.00
56174;BME280;42058;52.308;20.924;2024-03-25T07:51:36;99265.31;;;7.49;100.00
56174;BME280;42058;52.308;20.924;2024-03-25T07:54:06;99267.34;;;7.52;100.00
56174;BME280;42058;52.308;20.924;2024-03-25T07:56:33;99272.80;;;7.56;100.00
56174;BME280;42058;52.308;20.924;2024-03-25T07:59:04;99273.39;;;7.60;100.00
56174;BME280;42058;52.308;20.924;2024-03-25T08:01:31;99273.02;;;7.60;100.00
56174;BME280;42058;52.308;20.924;2024-03-25T08:03:59;99270.36;;;7.61;100.00
56174;BME280;42058;52.308;20.924;2024-03-25T08:06:26;99271.15;;;7.64;100.00
56174;BME280;42058;52.308;20.924;2024-03-25T08:08:53;99266.90;;;7.66;100.00
56174;BME280;42058;52.308;20.924;2024-03-25T08:11:21;99264.95;;;7.67;100.00
56174;BME280;42058;52.308;20.924;2024-03-25T08:13:50;99266.35;;;7.72;100.00
56174;BME280;42058;52.308;20.924;2024-03-25T08:16:18;99263.91;;;7.77;100.00
56174;BME280;42058;52.308;20.924;2024-03-25T08:18:47;99269.23;;;7.84;100.00
56174;BME280;42058;52.308;20.924;2024-03-25T08:21:14;99267.54;;;7.88;100.00
56174;BME280;42058;52.308;20.924;2024-03-25T08:23:44;99267.48;;;7.89;100.00
56174;BME280;42058;52.308;20.924;2024-03-25T08:26:12;99266.95;;;7.90;100.00
56174;BME280;42058;52.308;20.924;2024-03-25T08:28:39;99267.11;;;7.90;100.00
56174;BME280;42058;52.308;20.924;2024-03-25T08:31:07;99269.84;;;7.93;100.00
56174;BME280;42058;52.308;20.924;2024-03-25T08:33:34;99272.02;;;7.95;100.00
56174;BME280;42058;52.308;20.924;2024-03-25T08:36:01;99274.48;;;7.99;100.00
56174;BME280;42058;52.308;20.924;2024-03-25T08:38:30;99276.17;;;8.06;100.00
56174;BME280;42058;52.308;20.924;2024-03-25T08:40:57;99276.80;;;8.13;100.00
56174;BME280;42058;52.308;20.924;2024-03-25T08:43:25;99276.36;;;8.21;100.00
56174;BME280;42058;52.308;20.924;2024-03-25T08:45:52;99274.89;;;8.28;100.00
56174;BME280;42058;52.308;20.924;2024-03-25T08:48:20;99277.63;;;8.35;100.00
56174;BME280;42058;52.308;20.924;2024-03-25T08:50:47;99281.54;;;8.43;100.00
56174;BME280;42058;52.308;20.924;2024-03-25T08:53:14;99278.95;;;8.52;100.00
56174;BME280;42058;52.308;20.924;2024-03-25T08:55:45;99281.27;;;8.65;100.00
56174;BME280;42058;52.308;20.924;2024-03-25T08:58:16;99272.44;;;8.77;100.00
56174;BME280;42058;52.308;20.924;2024-03-25T09:00:43;99280.38;;;8.89;100.00
56174;BME280;42058;52.308;20.924;2024-03-25T09:03:11;99277.96;;;9.02;100.00
56174;BME280;42058;52.308;20.924;2024-03-25T09:05:38;99280.55;;;9.12;100.00
56174;BME280;42058;52.308;20.924;2024-03-25T09:08:06;99280.30;;;9.23;100.00
56174;BME280;42058;52.308;20.924;2024-03-25T09:10:33;99277.81;;;9.37;100.00
56174;BME280;42058;52.308;20.924;2024-03-25T09:13:19;99275.03;;;9.50;100.00
56174;BME280;42058;52.308;20.924;2024-03-25T09:15:47;99277.88;;;9.62;100.00
56174;BME280;42058;52.308;20.924;2024-03-25T09:18:15;99275.00;;;9.75;100.00
56174;BME280;42058;52.308;20.924;2024-03-25T09:20:42;99273.16;;;9.95;100.00
56174;BME280;42058;52.308;20.924;2024-03-25T09:23:09;99272.79;;;10.16;100.00
56174;BME280;42058;52.308;20.924;2024-03-25T09:25:37;99275.95;;;10.36;99.42
56174;BME280;42058;52.308;20.924;2024-03-25T09:28:04;99273.42;;;10.58;100.00
56174;BME280;42058;52.308;20.924;2024-03-25T09:30:33;99271.52;;;10.84;99.51
56174;BME280;42058;52.308;20.924;2024-03-25T09:33:00;99275.25;;;11.06;95.23
56174;BME280;42058;52.308;20.924;2024-03-25T09:35:28;99270.30;;;11.29;97.04
56174;BME280;42058;52.308;20.924;2024-03-25T09:37:55;99273.23;;;11.52;95.90
56174;BME280;42058;52.308;20.924;2024-03-25T09:40:24;99273.42;;;11.59;90.87
56174;BME280;42058;52.308;20.924;2024-03-25T09:43:02;99268.32;;;11.63;91.69
56174;BME280;42058;52.308;20.924;2024-03-25T09:45:29;99268.53;;;11.69;91.51
56174;BME280;42058;52.308;20.924;2024-03-25T09:47:57;99273.04;;;11.81;93.14
56174;BME280;42058;52.308;20.924;2024-03-25T09:50:25;99271.39;;;12.11;96.63
56174;BME280;42058;52.308;20.924;2024-03-25T09:52:54;99271.95;;;12.37;92.64
56174;BME280;42058;52.308;20.924;2024-03-25T09:55:25;99270.02;;;12.64;89.48
56174;BME280;42058;52.308;20.924;2024-03-25T09:57:56;99269.70;;;12.93;89.02
56174;BME280;42058;52.308;20.924;2024-03-25T10:00:26;99269.33;;;13.25;90.68
56174;BME280;42058;52.308;20.924;2024-03-25T10:02:53;99268.48;;;13.50;88.51
56174;BME280;42058;52.308;20.924;2024-03-25T10:05:21;99267.24;;;13.59;84.64
56174;BME280;42058;52.308;20.924;2024-03-25T10:07:49;99269.79;;;13.60;80.91
56174;BME280;42058;52.308;20.924;2024-03-25T10:10:20;99269.77;;;13.58;76.34
56174;BME280;42058;52.308;20.924;2024-03-25T10:12:47;99271.39;;;13.76;80.47
56174;BME280;42058;52.308;20.924;2024-03-25T10:15:18;99273.70;;;13.97;76.70
56174;BME280;42058;52.308;20.924;2024-03-25T10:17:49;99277.33;;;14.04;74.58
56174;BME280;42058;52.308;20.924;2024-03-25T10:20:16;99281.63;;;14.15;75.37
56174;BME280;42058;52.308;20.924;2024-03-25T10:22:45;99283.50;;;14.13;73.94
56174;BME280;42058;52.308;20.924;2024-03-25T10:25:21;99284.52;;;14.14;75.56
56174;BME280;42058;52.308;20.924;2024-03-25T10:30:29;99287.96;;;14.15;75.81
56174;BME280;42058;52.308;20.924;2024-03-25T10:33:03;99283.31;;;14.16;73.95
56174;BME280;42058;52.308;20.924;2024-03-25T10:35:32;99284.78;;;14.12;72.48
56174;BME280;42058;52.308;20.924;2024-03-25T10:38:02;99276.71;;;13.99;69.87
56174;BME280;42058;52.308;20.924;2024-03-25T10:40:33;99282.07;;;13.92;71.54
56174;BME280;42058;52.308;20.924;2024-03-25T10:43:05;99282.87;;;13.85;70.38
56174;BME280;42058;52.308;20.924;2024-03-25T10:45:35;99286.90;;;13.79;71.96
56174;BME280;42058;52.308;20.924;2024-03-25T10:48:29;99286.10;;;13.74;72.43
56174;BME280;42058;52.308;20.924;2024-03-25T10:51:00;99283.78;;;13.72;72.73
56174;BME280;42058;52.308;20.924;2024-03-25T10:53:30;99289.71;;;13.64;69.63
56174;BME280;42058;52.308;20.924;2024-03-25T10:55:57;99287.24;;;13.42;65.12
56174;BME280;42058;52.308;20.924;2024-03-25T10:58:26;99285.50;;;13.25;67.77
56174;BME280;42058;52.308;20.924;2024-03-25T11:00:55;99286.23;;;13.25;71.96
56174;BME280;42058;52.308;20.924;2024-03-25T11:03:24;99287.31;;;13.38;73.36
56174;BME280;42058;52.308;20.924;2024-03-25T11:05:52;99287.44;;;13.39;70.39
56174;BME280;42058;52.308;20.924;2024-03-25T11:08:19;99285.45;;;13.30;68.69
56174;BME280;42058;52.308;20.924;2024-03-25T11:10:47;99284.73;;;13.20;68.32
56174;BME280;42058;52.308;20.924;2024-03-25T11:13:18;99285.52;;;13.09;69.52
56174;BME280;42058;52.308;20.924;2024-03-25T11:15:47;99281.34;;;12.99;69.30
56174;BME280;42058;52.308;20.924;2024-03-25T11:18:21;99280.55;;;12.91;70.07
56174;BME280;42058;52.308;20.924;2024-03-25T11:21:05;99281.81;;;12.80;69.55
56174;BME280;42058;52.308;20.924;2024-03-25T11:23:44;99284.97;;;12.71;70.09
56174;BME280;42058;52.308;20.924;2024-03-25T11:26:19;99283.59;;;12.67;71.14
56174;BME280;42058;52.308;20.924;2024-03-25T11:28:47;99282.33;;;12.64;72.03
56174;BME280;42058;52.308;20.924;2024-03-25T11:31:15;99281.32;;;12.60;71.26
56174;BME280;42058;52.308;20.924;2024-03-25T11:33:43;99281.89;;;12.53;70.88
56174;BME280;42058;52.308;20.924;2024-03-25T11:36:10;99282.73;;;12.43;71.38
56174;BME280;42058;52.308;20.924;2024-03-25T11:38:38;99279.48;;;12.38;71.97
56174;BME280;42058;52.308;20.924;2024-03-25T11:41:10;99280.35;;;12.31;71.71
56174;BME280;42058;52.308;20.924;2024-03-25T11:43:39;99277.06;;;12.20;70.58
56174;BME280;42058;52.308;20.924;2024-03-25T11:46:06;99274.90;;;12.11;72.60
56174;BME280;42058;52.308;20.924;2024-03-25T11:48:33;99271.59;;;12.06;73.39
56174;BME280;42058;52.308;20.924;2024-03-25T11:51:03;99268.11;;;12.02;74.20
56174;BME280;42058;52.308;20.924;2024-03-25T11:53:30;99271.64;;;11.95;70.09
56174;BME280;42058;52.308;20.924;2024-03-25T11:55:59;99270.68;;;11.79;69.08
56174;BME280;42058;52.308;20.924;2024-03-25T11:58:26;99273.69;;;11.71;70.80
56174;BME280;42058;52.308;20.924;2024-03-25T12:00:54;99266.39;;;11.62;68.69
56174;BME280;42058;52.308;20.924;2024-03-25T12:03:23;99269.59;;;11.55;70.98
56174;BME280;42058;52.308;20.924;2024-03-25T12:06:05;99267.95;;;11.52;72.63
56174;BME280;42058;52.308;20.924;2024-03-25T12:08:33;99266.77;;;11.51;73.42
56174;BME280;42058;52.308;20.924;2024-03-25T12:11:04;99266.84;;;11.57;76.24
56174;BME280;42058;52.308;20.924;2024-03-25T12:13:46;99263.30;;;11.68;73.17
56174;BME280;42058;52.308;20.924;2024-03-25T12:16:14;99261.16;;;11.80;76.35
56174;BME280;42058;52.308;20.924;2024-03-25T12:18:42;99265.81;;;11.99;74.96
56174;BME280;42058;52.308;20.924;2024-03-25T12:21:10;99264.82;;;12.08;72.22
56174;BME280;42058;52.308;20.924;2024-03-25T12:23:37;99268.70;;;12.18;73.20
56174;BME280;42058;52.308;20.924;2024-03-25T12:26:05;99270.17;;;12.34;75.82
56174;BME280;42058;52.308;20.924;2024-03-25T12:28:33;99272.04;;;12.53;77.07
56174;BME280;42058;52.308;20.924;2024-03-25T12:31:07;99278.73;;;12.72;76.29
56174;BME280;42058;52.308;20.924;2024-03-25T12:33:42;99275.75;;;12.85;74.99
56174;BME280;42058;52.308;20.924;2024-03-25T12:36:14;99272.96;;;12.84;73.83
56174;BME280;42058;52.308;20.924;2024-03-25T12:38:41;99275.96;;;12.84;73.13
56174;BME280;42058;52.308;20.924;2024-03-25T12:41:11;99276.79;;;12.82;71.55
56174;BME280;42058;52.308;20.924;2024-03-25T12:43:42;99276.33;;;12.74;70.16
56174;BME280;42058;52.308;20.924;2024-03-25T12:46:11;99280.73;;;12.61;68.80
56174;BME280;42058;52.308;20.924;2024-03-25T12:48:38;99284.23;;;12.48;70.97
56174;BME280;42058;52.308;20.924;2024-03-25T12:51:15;99286.58;;;12.37;71.00
56174;BME280;42058;52.308;20.924;2024-03-25T12:53:42;99281.52;;;12.26;71.26
56174;BME280;42058;52.308;20.924;2024-03-25T12:56:09;99287.45;;;12.20;72.84
56174;BME280;42058;52.308;20.924;2024-03-25T12:58:37;99289.64;;;12.08;73.57